createdAt,value
2022-10-11T00:01:23.737Z,98015.61
2022-10-11T00:03:54.593Z,98018.30
2022-10-11T00:06:25.700Z,98016.13
2022-10-11T00:08:56.549Z,98014.61
2022-10-11T00:11:27.399Z,98022.21
2022-10-11T00:13:59.235Z,98029.54
2022-10-11T00:16:30.295Z,98027.30
2022-10-11T00:19:01.291Z,98028.55
2022-10-11T00:21:32.196Z,98027.80
2022-10-11T00:24:03.001Z,98024.62
2022-10-11T00:26:33.972Z,98032.60
2022-10-11T00:29:03.388Z,98037.48
2022-10-11T00:31:35.758Z,98038.93
2022-10-11T00:34:07.053Z,98033.84
2022-10-11T00:36:36.816Z,98031.19
2022-10-11T00:39:08.065Z,98028.83
2022-10-11T00:41:37.368Z,98032.09
2022-10-11T00:44:23.121Z,98034.88
2022-10-11T00:47:01.826Z,98036.23
2022-10-11T00:49:38.093Z,98037.91
2022-10-11T00:52:16.220Z,98036.34
2022-10-11T00:54:49.557Z,98041.63
2022-10-11T00:57:23.614Z,98041.17
2022-10-11T00:59:57.049Z,98037.45
2022-10-11T01:02:30.364Z,98041.05
2022-10-11T01:05:27.633Z,98048.27
2022-10-11T01:07:54.346Z,98048.73
2022-10-11T01:10:26.266Z,98038.98
2022-10-11T01:13:05.304Z,98046.03
2022-10-11T01:15:41.696Z,98044.66
2022-10-11T01:18:20.698Z,98045.80
2022-10-11T01:21:03.093Z,98045.55
2022-10-11T01:24:09.055Z,98042.23
2022-10-11T01:27:10.782Z,98038.88
2022-10-11T01:29:51.706Z,98035.05
2022-10-11T01:32:28.677Z,98042.91
2022-10-11T01:35:04.751Z,98047.83
2022-10-11T01:37:38.975Z,98046.44
2022-10-11T01:40:14.390Z,98046.59
2022-10-11T01:42:47.224Z,98048.45
2022-10-11T01:45:22.994Z,98054.44
2022-10-11T01:48:07.251Z,98053.43
2022-10-11T01:51:12.204Z,98053.59
2022-10-11T01:54:21.654Z,98053.48
2022-10-11T01:57:07.222Z,98060.73
2022-10-11T01:59:50.363Z,98067.48
2022-10-11T02:02:33.523Z,98070.02
2022-10-11T02:05:12.679Z,98073.80
2022-10-11T02:07:48.549Z,98078.71
2022-10-11T02:10:27.939Z,98080.20
2022-10-11T02:13:03.842Z,98084.33
2022-10-11T02:15:38.188Z,98078.30
2022-10-11T02:18:17.115Z,98078.30
2022-10-11T02:20:49.981Z,98082.79
2022-10-11T02:23:27.909Z,98081.60
2022-10-11T02:26:06.623Z,98090.70
2022-10-11T02:28:42.516Z,98093.55
2022-10-11T02:31:16.110Z,98092.28
2022-10-11T02:33:50.914Z,98088.55
2022-10-11T02:36:42.641Z,98095.49
2022-10-11T02:39:19.720Z,98095.18
2022-10-11T02:41:53.021Z,98096.60
2022-10-11T02:44:31.829Z,98093.43
2022-10-11T02:47:05.062Z,98099.35
2022-10-11T02:49:36.425Z,98098.84
2022-10-11T02:52:08.755Z,98101.09
2022-10-11T02:54:39.841Z,98101.86
2022-10-11T02:57:10.957Z,98108.48
2022-10-11T02:59:41.823Z,98114.55
2022-10-11T03:02:11.349Z,98110.56
2022-10-11T03:04:42.136Z,98110.09
2022-10-11T03:07:13.197Z,98110.44
2022-10-11T03:09:45.295Z,98115.32
2022-10-11T03:12:16.584Z,98117.86
2022-10-11T03:14:47.621Z,98117.23
2022-10-11T03:17:35.751Z,98118.03
2022-10-11T03:20:10.064Z,98119.46
2022-10-11T03:22:40.963Z,98120.04
2022-10-11T03:25:12.370Z,98118.27
2022-10-11T03:27:43.209Z,98124.40
2022-10-11T03:30:18.298Z,98126.91
2022-10-11T03:32:49.454Z,98124.22
2022-10-11T03:35:20.375Z,98117.69
2022-10-11T03:37:51.575Z,98122.59
2022-10-11T03:40:22.797Z,98130.80
2022-10-11T03:42:55.255Z,98136.77
2022-10-11T03:45:26.340Z,98141.97
2022-10-11T03:47:55.770Z,98146.92
2022-10-11T03:50:26.820Z,98145.80
2022-10-11T03:52:57.615Z,98149.02
2022-10-11T03:55:28.648Z,98155.67
2022-10-11T03:57:58.205Z,98161.43
2022-10-11T04:00:29.175Z,98157.02
2022-10-11T04:02:59.223Z,98166.98
2022-10-11T04:05:30.400Z,98175.27
2022-10-11T04:08:01.412Z,98177.91
2022-10-11T04:10:32.824Z,98169.66
2022-10-11T04:13:04.447Z,98174.27
2022-10-11T04:15:35.351Z,98171.98
2022-10-11T04:18:07.199Z,98176.98
2022-10-11T04:20:38.347Z,98177.77
2022-10-11T04:23:09.199Z,98170.83
2022-10-11T04:25:41.880Z,98176.29
2022-10-11T04:28:12.903Z,98176.77
2022-10-11T04:30:43.861Z,98187.52
2022-10-11T04:33:15.104Z,98195.20
2022-10-11T04:35:45.991Z,98201.33
2022-10-11T04:38:16.887Z,98200.64
2022-10-11T04:40:47.829Z,98194.77
2022-10-11T04:43:19.101Z,98201.01
2022-10-11T04:45:54.606Z,98208.14
2022-10-11T04:48:26.515Z,98207.05
2022-10-11T04:50:55.910Z,98208.39
2022-10-11T04:53:26.875Z,98209.77
2022-10-11T04:56:02.805Z,98209.27
2022-10-11T04:58:35.744Z,98207.26
2022-10-11T05:01:06.856Z,98207.94
2022-10-11T05:03:38.366Z,98208.21
2022-10-11T05:06:09.998Z,98205.88
2022-10-11T05:08:41.473Z,98208.85
2022-10-11T05:11:16.153Z,98207.69
2022-10-11T05:13:48.146Z,98204.48
2022-10-11T05:16:18.986Z,98206.52
2022-10-11T05:18:52.916Z,98209.39
2022-10-11T05:21:25.952Z,98219.84
2022-10-11T05:23:58.168Z,98219.95
2022-10-11T05:26:30.331Z,98209.44
2022-10-11T05:29:01.539Z,98216.50
2022-10-11T05:31:32.622Z,98220.93
2022-10-11T05:34:03.480Z,98222.05
2022-10-11T05:36:34.335Z,98229.56
2022-10-11T05:39:05.346Z,98235.58
2022-10-11T05:41:36.475Z,98242.77
2022-10-11T05:44:10.186Z,98241.66
2022-10-11T05:46:41.516Z,98250.74
2022-10-11T05:49:12.589Z,98255.69
2022-10-11T05:51:43.981Z,98260.60
2022-10-11T05:54:15.068Z,98260.80
2022-10-11T05:56:46.077Z,98271.09
2022-10-11T05:59:17.063Z,98273.83
2022-10-11T06:01:47.923Z,98276.91
2022-10-11T06:04:19.083Z,98277.64
2022-10-11T06:06:50.074Z,98282.71
2022-10-11T06:09:21.099Z,98291.67
2022-10-11T06:11:51.898Z,98295.89
2022-10-11T06:14:22.887Z,98288.73
2022-10-11T06:25:58.752Z,98313.42
2022-10-11T06:28:30.468Z,98310.70
2022-10-11T08:49:25.836Z,98393.75
2022-10-11T08:52:02.659Z,98395.74
2022-10-11T08:54:43.155Z,98391.08
2022-10-11T08:57:19.463Z,98392.91
2022-10-11T08:59:54.294Z,98392.38
2022-10-11T09:03:03.162Z,98392.88
2022-10-11T09:05:36.161Z,98391.02
2022-10-11T09:08:13.906Z,98388.34
2022-10-11T09:10:58.885Z,98392.13
2022-10-11T09:13:58.432Z,98396.66
2022-10-11T09:16:45.280Z,98395.75
2022-10-11T09:19:29.739Z,98398.52
2022-10-11T09:22:09.891Z,98397.20
2022-10-11T09:24:52.892Z,98402.13
2022-10-11T09:27:50.378Z,98397.92
2022-10-11T09:30:23.058Z,98399.80
2022-10-11T09:33:04.822Z,98400.58
2022-10-11T09:35:42.059Z,98400.45
2022-10-11T09:38:33.669Z,98401.72
2022-10-11T09:41:16.271Z,98398.32
2022-10-11T09:43:54.370Z,98400.23
2022-10-11T09:46:31.250Z,98397.50
2022-10-11T09:49:31.879Z,98402.04
2022-10-11T09:52:16.024Z,98404.81
2022-10-11T09:54:48.619Z,98402.50
2022-10-11T09:57:25.644Z,98405.92
2022-10-11T10:00:20.985Z,98407.99
2022-10-11T10:02:53.594Z,98407.54
2022-10-11T10:05:26.017Z,98412.27
2022-10-11T10:08:27.008Z,98414.27
2022-10-11T10:11:06.816Z,98407.24
2022-10-11T10:13:45.138Z,98406.14
2022-10-11T10:16:28.212Z,98409.59
2022-10-11T10:19:02.268Z,98408.43
2022-10-11T10:21:36.428Z,98409.46
2022-10-11T10:24:09.920Z,98410.21
2022-10-11T10:26:41.068Z,98411.67
2022-10-11T10:29:20.335Z,98411.73
2022-10-11T10:34:59.454Z,98408.45
2022-10-11T10:37:34.797Z,98407.26
2022-10-11T10:40:10.453Z,98408.75
2022-10-11T10:42:41.479Z,98406.42
2022-10-11T10:45:21.530Z,98406.98
2022-10-11T10:48:10.988Z,98407.89
2022-10-11T10:50:53.425Z,98409.75
2022-10-11T10:53:45.662Z,98409.33
2022-10-11T10:56:23.072Z,98409.99
2022-10-11T10:59:04.437Z,98411.48
2022-10-11T11:01:52.399Z,98410.79
2022-10-11T11:04:31.793Z,98411.56
2022-10-11T11:07:12.897Z,98408.94
2022-10-11T11:09:56.192Z,98406.84
2022-10-11T11:12:42.726Z,98413.15
2022-10-11T11:15:19.750Z,98415.41
2022-10-11T11:18:03.345Z,98413.41
2022-10-11T11:20:48.518Z,98400.48
2022-10-11T11:23:28.263Z,98407.04
2022-10-11T11:26:09.009Z,98408.38
2022-10-11T11:29:03.920Z,98405.02
2022-10-11T11:32:06.365Z,98408.08
2022-10-11T11:34:43.077Z,98404.64
2022-10-11T11:37:26.451Z,98406.10
2022-10-11T11:40:03.669Z,98405.17
2022-10-11T11:42:42.962Z,98398.03
2022-10-11T11:45:22.571Z,98401.30
2022-10-11T11:48:02.020Z,98402.98
2022-10-11T11:50:40.333Z,98404.29
2022-10-11T11:53:17.737Z,98399.52
2022-10-11T11:55:55.821Z,98401.95
2022-10-11T11:58:37.018Z,98398.28
2022-10-11T12:01:19.754Z,98395.13
2022-10-11T12:03:54.869Z,98392.64
2022-10-11T12:06:31.069Z,98391.95
2022-10-11T12:09:06.746Z,98390.03
2022-10-11T12:11:52.088Z,98393.58
2022-10-11T12:14:31.033Z,98394.62
2022-10-11T12:17:20.552Z,98391.05
2022-10-11T12:20:04.635Z,98391.41
2022-10-11T12:22:50.086Z,98387.45
2022-10-11T12:26:02.945Z,98385.04
2022-10-11T12:28:56.085Z,98382.88
2022-10-11T12:31:32.443Z,98378.17
2022-10-11T12:34:19.097Z,98377.95
2022-10-11T12:36:53.586Z,98377.20
2022-10-11T12:39:48.120Z,98382.84
2022-10-11T12:42:26.319Z,98376.80
2022-10-11T12:45:11.194Z,98381.26
2022-10-11T12:47:49.352Z,98384.55
2022-10-11T12:50:26.442Z,98378.70
2022-10-11T12:53:06.372Z,98379.67
2022-10-11T12:55:49.468Z,98377.08
2022-10-11T12:58:38.387Z,98376.64
2022-10-11T13:01:19.529Z,98378.88
2022-10-11T13:04:01.799Z,98379.33
2022-10-11T13:06:37.419Z,98377.09
2022-10-11T13:09:26.366Z,98375.20
2022-10-11T13:16:04.459Z,98377.64
2022-10-11T13:18:43.632Z,98380.20
2022-10-11T13:21:30.071Z,98381.17
2022-10-11T13:24:06.262Z,98379.23
2022-10-11T13:26:41.842Z,98377.92
2022-10-11T13:29:28.990Z,98382.97
2022-10-11T13:32:01.313Z,98381.39
2022-10-11T13:34:37.739Z,98386.70
2022-10-11T13:37:09.997Z,98386.29
2022-10-11T13:39:43.321Z,98387.55
2022-10-11T13:42:17.059Z,98387.38
2022-10-11T13:44:52.085Z,98387.09
2022-10-11T13:51:33.289Z,98382.71
2022-10-11T14:04:29.390Z,98382.30
2022-10-11T14:07:02.892Z,98382.38
2022-10-11T14:09:36.362Z,98381.16
2022-10-11T14:12:31.267Z,98386.41
2022-10-11T14:15:08.302Z,98383.49
2022-10-11T14:17:46.610Z,98384.62
2022-10-11T14:20:21.877Z,98384.73
2022-10-11T14:22:54.694Z,98387.02
2022-10-11T14:25:25.603Z,98387.45
2022-10-11T14:27:56.408Z,98389.52
2022-10-11T14:30:31.620Z,98389.80
2022-10-11T14:37:06.887Z,98391.68
2022-10-11T14:42:27.523Z,98393.89
2022-10-11T14:44:58.365Z,98395.84
2022-10-11T14:47:29.229Z,98396.55
2022-10-11T14:50:00.404Z,98392.70
2022-10-11T14:52:31.364Z,98392.33
2022-10-11T14:55:25.770Z,98388.48
2022-10-11T14:58:24.604Z,98390.25
2022-10-11T15:00:57.586Z,98390.11
2022-10-11T15:03:30.408Z,98386.89
2022-10-11T15:06:18.544Z,98389.71
2022-10-11T15:08:52.551Z,98389.29
2022-10-11T15:11:24.418Z,98389.88
2022-10-11T15:13:55.270Z,98387.22
2022-10-11T15:16:27.019Z,98389.93
2022-10-11T15:18:58.194Z,98392.94
2022-10-11T15:21:30.361Z,98395.66
2022-10-11T15:24:01.392Z,98394.95
2022-10-11T15:26:34.053Z,98403.51
2022-10-11T15:29:05.287Z,98402.77
2022-10-11T15:31:36.583Z,98410.20
2022-10-11T15:34:07.638Z,98413.09
2022-10-11T15:36:38.395Z,98411.81
2022-10-11T15:39:25.583Z,98413.63
2022-10-11T15:41:56.539Z,98413.16
2022-10-11T15:44:27.328Z,98417.45
2022-10-11T15:46:58.429Z,98418.13
2022-10-11T15:49:29.031Z,98418.59
2022-10-11T15:52:09.046Z,98422.21
2022-10-11T15:54:43.136Z,98422.84
2022-10-11T15:57:13.884Z,98432.89
2022-10-11T15:59:48.846Z,98438.11
2022-10-11T16:02:19.992Z,98441.02
2022-10-11T16:04:50.806Z,98448.29
2022-10-11T16:07:21.617Z,98449.59
2022-10-11T16:09:52.469Z,98451.27
2022-10-11T16:12:24.296Z,98454.77
2022-10-11T16:14:55.180Z,98456.60
2022-10-11T16:17:26.134Z,98453.70
2022-10-11T16:19:57.720Z,98455.63
2022-10-11T16:22:28.850Z,98457.35
2022-10-11T16:25:02.641Z,98458.77
2022-10-11T16:27:33.782Z,98462.84
2022-10-11T16:30:30.270Z,98467.45
2022-10-11T16:33:04.895Z,98466.75
2022-10-11T16:35:35.683Z,98474.13
2022-10-11T16:38:06.498Z,98475.91
2022-10-11T16:40:37.855Z,98478.69
2022-10-11T16:43:09.340Z,98484.64
2022-10-11T16:45:40.472Z,98485.13
2022-10-11T16:48:11.408Z,98490.02
2022-10-11T16:50:42.282Z,98493.48
2022-10-11T16:53:15.607Z,98491.75
2022-10-11T16:55:46.526Z,98493.73
2022-10-11T16:58:17.348Z,98499.27
2022-10-11T17:00:48.077Z,98499.68
2022-10-11T17:03:17.910Z,98504.41
2022-10-11T17:05:58.143Z,98504.95
2022-10-11T17:08:29.103Z,98507.88
2022-10-11T17:11:00.452Z,98509.52
2022-10-11T17:13:31.776Z,98513.09
2022-10-11T17:16:03.136Z,98516.63
2022-10-11T17:18:34.471Z,98512.93
2022-10-11T17:21:07.971Z,98507.16
2022-10-11T17:23:39.217Z,98510.48
2022-10-11T17:26:13.559Z,98509.84
2022-10-11T17:28:44.756Z,98513.80
2022-10-11T17:31:16.714Z,98520.59
2022-10-11T17:33:47.746Z,98517.99
2022-10-11T17:36:22.748Z,98516.21
2022-10-11T17:38:53.877Z,98512.02
2022-10-11T17:41:29.441Z,98513.21
2022-10-11T17:44:03.213Z,98511.42
2022-10-11T17:46:34.423Z,98511.84
2022-10-11T17:49:07.767Z,98518.61
2022-10-11T17:51:40.008Z,98514.79
2022-10-11T17:54:13.055Z,98514.84
2022-10-11T17:56:44.558Z,98516.67
2022-10-11T17:59:21.044Z,98511.96
2022-10-11T18:01:52.269Z,98513.34
2022-10-11T18:04:26.882Z,98511.55
2022-10-11T18:06:58.146Z,98514.15
2022-10-11T18:09:29.344Z,98515.31
2022-10-11T18:11:58.656Z,98518.89
2022-10-11T18:14:29.583Z,98518.77
2022-10-11T18:17:00.432Z,98519.52
2022-10-11T18:19:29.995Z,98519.35
2022-10-11T18:22:04.502Z,98520.58
2022-10-11T18:24:39.119Z,98522.60
2022-10-11T18:27:09.971Z,98524.94
2022-10-11T18:29:41.222Z,98525.27
2022-10-11T18:32:12.299Z,98525.33
2022-10-11T18:34:43.492Z,98528.37
2022-10-11T18:37:14.584Z,98528.34
2022-10-11T18:39:43.941Z,98529.19
2022-10-11T18:42:14.855Z,98529.20
2022-10-11T18:44:46.198Z,98529.95
2022-10-11T18:47:17.606Z,98534.06
2022-10-11T18:49:48.635Z,98535.12
2022-10-11T18:52:19.494Z,98531.17
2022-10-11T18:54:50.622Z,98529.55
2022-10-11T18:57:21.554Z,98530.09
2022-10-11T18:59:55.220Z,98532.41
2022-10-11T19:02:26.164Z,98530.44
2022-10-11T19:04:57.542Z,98529.19
2022-10-11T19:07:29.344Z,98528.72
2022-10-11T19:10:00.758Z,98528.96
2022-10-11T19:12:31.713Z,98529.04
2022-10-11T19:15:02.879Z,98532.27
2022-10-11T19:17:33.986Z,98531.65
2022-10-11T19:20:05.029Z,98534.71
2022-10-11T19:22:36.100Z,98535.14
2022-10-11T19:25:08.162Z,98535.24
2022-10-11T19:27:39.179Z,98536.63
2022-10-11T19:30:09.634Z,98536.30
2022-10-11T19:32:40.479Z,98528.30
2022-10-11T19:35:16.412Z,98523.70
2022-10-11T19:37:49.796Z,98539.61
2022-10-11T19:40:20.724Z,98542.02
2022-10-11T19:42:51.840Z,98543.39
2022-10-11T19:45:22.674Z,98540.06
2022-10-11T19:47:53.759Z,98543.63
2022-10-11T19:50:25.180Z,98547.95
2022-10-11T19:52:56.035Z,98547.86
2022-10-11T19:55:26.987Z,98548.50
2022-10-11T19:57:56.513Z,98546.44
2022-10-11T20:00:27.326Z,98550.95
2022-10-11T20:02:58.231Z,98550.98
2022-10-11T20:05:29.203Z,98550.32
2022-10-11T20:07:59.981Z,98552.29
2022-10-11T20:10:30.895Z,98553.31
2022-10-11T20:13:01.815Z,98551.70
2022-10-11T20:15:37.678Z,98550.90
2022-10-11T20:18:08.868Z,98550.19
2022-10-11T20:20:39.892Z,98543.80
2022-10-11T20:23:14.768Z,98544.55
2022-10-11T20:25:57.613Z,98548.80
2022-10-11T20:28:30.809Z,98553.30
2022-10-11T20:31:03.431Z,98553.36
2022-10-11T20:33:35.058Z,98558.00
2022-10-11T20:36:08.855Z,98555.52
2022-10-11T20:38:47.140Z,98554.24
2022-10-11T20:41:20.471Z,98551.52
2022-10-11T20:43:54.259Z,98547.21
2022-10-11T20:46:27.990Z,98555.19
2022-10-11T20:49:02.104Z,98556.73
2022-10-11T20:51:34.652Z,98557.41
2022-10-11T20:54:52.569Z,98558.77
2022-10-11T20:57:23.474Z,98555.19
2022-10-11T20:59:57.295Z,98559.05
2022-10-11T21:02:28.187Z,98558.30
2022-10-11T21:04:59.070Z,98560.39
2022-10-11T21:07:30.320Z,98556.54
2022-10-11T21:10:01.243Z,98554.25
2022-10-11T21:12:32.630Z,98555.61
2022-10-11T21:15:04.215Z,98554.89
2022-10-11T21:17:35.049Z,98552.17
2022-10-11T21:20:07.111Z,98555.81
2022-10-11T21:22:38.260Z,98558.98
2022-10-11T21:25:09.809Z,98555.84
2022-10-11T21:27:40.833Z,98555.05
2022-10-11T21:30:13.633Z,98553.64
2022-10-11T21:32:44.618Z,98551.32
2022-10-11T21:35:15.820Z,98553.42
2022-10-11T21:37:45.459Z,98555.52
2022-10-11T21:40:16.114Z,98550.83
2022-10-11T21:42:47.378Z,98549.23
2022-10-11T21:45:18.512Z,98546.25
2022-10-11T21:47:49.904Z,98548.10
2022-10-11T21:50:20.824Z,98548.25
2022-10-11T21:52:51.846Z,98548.35
2022-10-11T21:55:22.733Z,98550.73
2022-10-11T21:57:53.865Z,98551.11
2022-10-11T22:00:26.238Z,98552.86
2022-10-11T22:02:57.328Z,98555.02
2022-10-11T22:05:28.218Z,98554.48
2022-10-11T22:07:59.146Z,98548.50
2022-10-11T22:10:30.097Z,98548.88
2022-10-11T22:13:01.140Z,98550.27
2022-10-11T22:15:34.023Z,98550.40
2022-10-11T22:18:05.123Z,98552.21
2022-10-11T22:20:36.315Z,98544.25
2022-10-11T22:23:07.324Z,98551.98
2022-10-11T22:25:37.079Z,98551.31
2022-10-11T22:28:08.599Z,98551.10
2022-10-11T22:30:39.970Z,98552.23
2022-10-11T22:33:10.842Z,98550.90
2022-10-11T22:35:41.649Z,98544.40
2022-10-11T22:38:12.456Z,98550.90
2022-10-11T22:40:43.521Z,98550.48
2022-10-11T22:43:14.491Z,98557.26
2022-10-11T22:45:45.636Z,98554.01
2022-10-11T22:48:16.442Z,98553.75
2022-10-11T22:50:47.483Z,98549.71
2022-10-11T22:53:18.464Z,98549.15
2022-10-11T22:55:49.873Z,98552.80
2022-10-11T22:58:19.361Z,98551.64
2022-10-11T23:00:50.336Z,98552.89
2022-10-11T23:03:21.153Z,98555.33
2022-10-11T23:05:57.596Z,98554.30
2022-10-11T23:08:28.648Z,98554.60
2022-10-11T23:11:02.907Z,98556.18
2022-10-11T23:13:34.026Z,98556.52
2022-10-11T23:16:09.831Z,98557.65
2022-10-11T23:18:41.273Z,98554.36
2022-10-11T23:21:13.220Z,98550.54
2022-10-11T23:23:44.424Z,98554.90
2022-10-11T23:26:16.930Z,98550.14
2022-10-11T23:28:48.424Z,98552.32
2022-10-11T23:31:19.834Z,98552.46
2022-10-11T23:33:51.265Z,98553.90
2022-10-11T23:36:24.154Z,98551.23
2022-10-11T23:38:56.831Z,98552.63
2022-10-11T23:41:30.769Z,98558.31
2022-10-11T23:44:01.790Z,98564.30
2022-10-11T23:46:32.603Z,98567.14
2022-10-11T23:49:03.587Z,98570.62
2022-10-11T23:51:34.590Z,98574.90
2022-10-11T23:54:05.952Z,98577.63
2022-10-11T23:56:36.921Z,98575.44
2022-10-11T23:59:08.139Z,98575.77
